メインページ
METAR-TAF:

METAR-TAF

空港 :

マウント・プレザント空軍基地

スタンリー, フォークランド諸島

緯度: 51-49S, 経度: 058-27W, 海抜: 74m

現時点の気象観測

当レポートは42分前の08:50(UTC)に作成
南西の風 12kt
気温 6°C
湿度 61%
気圧 1006 hPa
視程10km以上
高度3100ftの千切れ雲あり

METAR: EGYP 190850Z 22012KT 9999 BKN031 06/M01 Q1006 BLU NOSIG

時間: 06:32 (09:32 UTC)

予報

当レポートは1時間59分前の07:33(UTC)に作成
予報は19日の 09時(UTC)から 20日の 03時(UTC)まで有効
南西の風 16kt
視程10km以上
高度2500ftの雲はほとんどない
19日の 23時(UTC)から 20日の 02時(UTC)まで徐々に
西の風 12kt

TAF: EGYP 190733Z 1909/2003 23016KT 9999 FEW025 BECMG 1923/2002 26012KT

4,000以上の空港の気象観測と天気予報(METAR報とTAF報)

利用可能な観測所は地図上に黄色い丸と赤い丸で示す。

丸の上にカーソルを重ねると観測所名を参照できる。

次にクリックすると気象観測と天気予報を参照できる。

マップの切り替え:黒色「×」印の緑ボタンをクリックして拡大、「-」印の緑ボタンをクリックして縮小、緑色の三角印をクリックして隣りの地図に切り替え


METAR-TAF: